Time;durP1;ratioP1;P1;durP2;ratioP2;P2;SDS_P1;SDS_P2;PMS_P1;PMS_P2;Temp;Humidity;BMP_temperature;BMP_pressure;BME280_temperature;BME280_humidity;BME280_pressure;Samples;Min_cycle;Max_cycle;Signal;HPM_P1;HPM_P2
2023/09/03 00:00:15;;;;;;;0.10;0.10;;;;;;;22.65;54.90;102660.59;5039588;28;20065;-66
2023/09/03 00:02:40;;;;;;;0.00;0.00;;;;;;;22.67;55.42;102655.69;5040650;28;20428;-66
2023/09/03 00:05:06;;;;;;;0.10;0.10;;;;;;;22.64;55.12;102657.03;5041928;28;20028;-66
2023/09/03 00:07:32;;;;;;;0.10;0.10;;;;;;;22.74;54.99;102672.75;5039554;28;20546;-65
2023/09/03 00:09:57;;;;;;;0.10;0.10;;;;;;;22.66;55.60;102668.56;5041261;28;20037;-65
2023/09/03 00:12:22;;;;;;;0.10;0.10;;;;;;;22.74;55.42;102674.66;5040441;28;20056;-67
2023/09/03 00:14:48;;;;;;;0.10;0.10;;;;;;;22.65;55.09;102679.78;5042681;28;20049;-66
2023/09/03 00:17:14;;;;;;;0.10;0.10;;;;;;;22.59;55.43;102678.06;5042491;28;20397;-66
2023/09/03 00:19:41;;;;;;;0.10;0.10;;;;;;;22.65;55.69;102688.00;5040851;28;20497;-66
2023/09/03 00:22:07;;;;;;;0.10;0.10;;;;;;;22.54;56.29;102681.56;5041843;28;20116;-67
2023/09/03 00:24:33;;;;;;;0.10;0.10;;;;;;;22.57;55.75;102675.59;5021560;28;20036;-67
2023/09/03 00:26:58;;;;;;;0.10;0.10;;;;;;;22.49;56.90;102681.53;5039975;28;20034;-66
2023/09/03 00:29:24;;;;;;;0.10;0.10;;;;;;;22.36;56.03;102692.09;5041954;28;20120;-67
2023/09/03 00:31:49;;;;;;;0.17;0.17;;;;;;;22.37;55.79;102691.81;5062073;28;20028;-66
2023/09/03 00:34:15;;;;;;;0.20;0.20;;;;;;;22.27;56.10;102690.91;5059860;28;20043;-67
2023/09/03 00:36:40;;;;;;;0.10;0.10;;;;;;;22.17;56.83;102694.34;5060021;28;20049;-66
2023/09/03 00:39:06;;;;;;;0.00;0.00;;;;;;;22.35;55.92;102688.50;5061789;28;20059;-66
2023/09/03 00:41:32;;;;;;;0.10;0.10;;;;;;;22.21;56.71;102679.03;5061221;28;20163;-66
2023/09/03 00:43:57;;;;;;;0.10;0.10;;;;;;;22.30;57.28;102676.69;5060405;28;20059;-67
2023/09/03 00:46:23;;;;;;;0.10;0.10;;;;;;;22.28;56.21;102673.38;5056542;28;20052;-66
2023/09/03 00:48:49;;;;;;;0.10;0.10;;;;;;;22.28;56.58;102670.63;5060086;28;20021;-67
2023/09/03 00:51:17;;;;;;;0.10;0.10;;;;;;;22.19;56.60;102669.44;5060372;28;20132;-66
2023/09/03 00:53:47;;;;;;;0.10;0.10;;;;;;;22.18;56.80;102673.25;5061737;28;20163;-66
2023/09/03 00:56:13;;;;;;;0.20;0.20;;;;;;;21.86;58.08;102672.38;5061021;28;20112;-67
2023/09/03 00:58:38;;;;;;;0.10;0.10;;;;;;;22.08;57.74;102673.97;5059877;28;20078;-67
2023/09/03 01:01:05;;;;;;;0.10;0.10;;;;;;;22.12;57.20;102680.59;5056975;28;20040;-66
2023/09/03 01:03:30;;;;;;;0.10;0.10;;;;;;;22.15;57.04;102673.78;5060930;28;20049;-67
2023/09/03 01:05:56;;;;;;;0.10;0.10;;;;;;;22.16;56.86;102684.47;5058849;28;20492;-66
2023/09/03 01:08:22;;;;;;;0.10;0.10;;;;;;;22.24;56.37;102685.94;5050575;28;20032;-66
2023/09/03 01:11:21;;;;;;;0.10;0.10;;;;;;;22.20;56.53;102674.66;5051997;28;20024;-67
2023/09/03 01:14:09;;;;;;;0.10;0.10;;;;;;;22.14;57.39;102672.97;4986142;28;20046;-66
2023/09/03 01:16:41;;;;;;;0.10;0.10;;;;;;;21.93;57.70;102681.19;4985506;28;20686;-67
2023/09/03 01:19:32;;;;;;;0.10;0.10;;;;;;;22.08;57.07;102686.84;4988666;28;20047;-66
2023/09/03 01:22:06;;;;;;;0.10;0.10;;;;;;;21.90;57.18;102685.25;4930523;28;20156;-67
2023/09/03 01:24:57;;;;;;;0.10;0.10;;;;;;;22.02;57.39;102677.75;4931010;29;20078;-67
2023/09/03 01:27:31;;;;;;;0.10;0.10;;;;;;;22.04;57.61;102669.25;4931031;29;20134;-67
2023/09/03 01:29:58;;;;;;;0.15;0.15;;;;;;;21.91;58.50;102686.94;4930798;29;20755;-68
2023/09/03 01:32:24;;;;;;;0.10;0.10;;;;;;;21.88;58.66;102697.56;4930691;29;20050;-67
2023/09/03 01:34:51;;;;;;;0.10;0.10;;;;;;;21.82;58.02;102691.19;4931180;29;20048;-67
2023/09/03 01:37:16;;;;;;;0.10;0.10;;;;;;;21.88;58.28;102698.38;4930317;29;20048;-66
2023/09/03 01:39:42;;;;;;;0.10;0.10;;;;;;;21.78;57.85;102706.44;4930441;29;20065;-67
2023/09/03 01:42:07;;;;;;;0.10;0.10;;;;;;;21.80;57.69;102716.09;4932971;29;20047;-68
2023/09/03 01:44:32;;;;;;;0.10;0.10;;;;;;;21.76;58.21;102714.06;4949427;28;20035;-66
2023/09/03 01:47:31;;;;;;;0.10;0.10;;;;;;;21.77;58.28;102699.31;4949853;29;20047;-67
2023/09/03 01:50:20;;;;;;;0.10;0.10;;;;;;;22.07;57.40;102704.38;4951605;28;20043;-66
2023/09/03 01:52:48;;;;;;;0.10;0.10;;;;;;;21.94;57.42;102691.88;4968573;28;20053;-67
2023/09/03 01:55:16;;;;;;;0.10;0.10;;;;;;;22.03;57.00;102684.06;4987256;28;20459;-68
2023/09/03 01:57:47;;;;;;;0.20;0.20;;;;;;;21.99;56.94;102678.28;4987517;28;20132;-67
2023/09/03 02:00:18;;;;;;;0.10;0.10;;;;;;;21.95;57.22;102677.13;5065788;28;20033;-66
2023/09/03 02:02:45;;;;;;;0.10;0.10;;;;;;;21.69;58.34;102673.22;5069267;28;20108;-66
2023/09/03 02:05:12;;;;;;;0.10;0.10;;;;;;;21.84;57.72;102665.22;5069227;28;20029;-66
2023/09/03 02:07:37;;;;;;;0.10;0.10;;;;;;;21.84;57.82;102657.00;5069421;28;20028;-66
2023/09/03 02:10:03;;;;;;;0.10;0.10;;;;;;;21.80;57.45;102650.41;5068255;28;20101;-68
2023/09/03 02:12:29;;;;;;;0.20;0.20;;;;;;;21.78;57.48;102652.53;5069307;28;20032;-68
2023/09/03 02:14:54;;;;;;;0.17;0.17;;;;;;;21.72;58.88;102637.13;5065856;28;20496;-66
2023/09/03 02:17:20;;;;;;;0.20;0.20;;;;;;;21.83;57.88;102632.63;5041550;28;20531;-66
2023/09/03 02:19:49;;;;;;;0.10;0.10;;;;;;;21.93;57.79;102632.75;5049728;28;20024;-68
2023/09/03 02:22:14;;;;;;;0.00;0.00;;;;;;;22.03;58.26;102629.28;5048887;28;20033;-67
2023/09/03 02:24:39;;;;;;;0.20;0.20;;;;;;;22.04;57.69;102637.25;5049158;28;20029;-66
2023/09/03 02:27:05;;;;;;;0.10;0.10;;;;;;;21.91;58.53;102656.00;5049035;28;20567;-67
2023/09/03 02:29:30;;;;;;;0.10;0.10;;;;;;;21.79;58.90;102661.56;5049618;28;20041;-67
2023/09/03 02:31:55;;;;;;;0.10;0.10;;;;;;;21.75;58.19;102674.94;5050355;28;20013;-65
2023/09/03 02:34:21;;;;;;;0.20;0.20;;;;;;;21.93;58.49;102651.09;5049826;28;20044;-66
2023/09/03 02:36:46;;;;;;;0.20;0.20;;;;;;;22.00;58.41;102636.09;5049804;28;20036;-67
2023/09/03 02:39:13;;;;;;;0.20;0.20;;;;;;;21.97;58.10;102631.16;5064315;28;20041;-66
2023/09/03 02:41:38;;;;;;;0.00;0.00;;;;;;;21.96;58.10;102629.50;5031556;28;20041;-65
2023/09/03 02:44:04;;;;;;;0.10;0.10;;;;;;;21.91;57.84;102632.19;5053245;28;20074;-67
2023/09/03 02:46:29;;;;;;;0.10;0.10;;;;;;;21.86;57.90;102639.53;5069335;28;20049;-67
2023/09/03 02:48:55;;;;;;;0.10;0.10;;;;;;;21.86;58.27;102647.72;5069759;28;20052;-66
2023/09/03 02:51:21;;;;;;;0.10;0.10;;;;;;;21.78;57.58;102647.06;5069733;28;20543;-67
2023/09/03 02:53:47;;;;;;;0.10;0.10;;;;;;;21.63;58.48;102646.88;5069797;28;20484;-66
2023/09/03 02:56:13;;;;;;;0.10;0.10;;;;;;;21.76;58.04;102649.22;5069558;28;20077;-66
2023/09/03 02:58:39;;;;;;;0.20;0.20;;;;;;;21.79;58.35;102654.19;5070253;28;20016;-66
2023/09/03 03:01:06;;;;;;;0.10;0.10;;;;;;;21.81;57.89;102643.84;5069669;28;20566;-66
2023/09/03 03:03:31;;;;;;;0.10;0.10;;;;;;;21.83;57.65;102640.84;5069424;28;20484;-66
2023/09/03 03:05:57;;;;;;;0.10;0.10;;;;;;;21.53;57.85;102654.94;5051034;28;20032;-66
2023/09/03 03:08:22;;;;;;;0.15;0.15;;;;;;;21.59;57.96;102667.63;5069573;28;20490;-66
2023/09/03 03:10:47;;;;;;;0.13;0.13;;;;;;;21.66;57.31;102672.91;5070143;28;20024;-68
2023/09/03 03:13:13;;;;;;;0.10;0.10;;;;;;;21.54;58.03;102666.72;5059706;28;20033;-66
2023/09/03 03:15:38;;;;;;;0.10;0.10;;;;;;;21.56;57.84;102667.31;5049133;28;20037;-66
2023/09/03 03:18:04;;;;;;;0.10;0.10;;;;;;;21.65;57.81;102665.78;5048592;28;20389;-65
2023/09/03 03:20:29;;;;;;;0.10;0.10;;;;;;;21.53;58.42;102673.28;5045388;28;20128;-66
2023/09/03 03:22:54;;;;;;;0.20;0.20;;;;;;;21.52;58.73;102686.13;5053600;28;20037;-66
2023/09/03 03:25:20;;;;;;;0.20;0.20;;;;;;;21.49;58.59;102691.28;5053226;28;20037;-66
2023/09/03 03:27:45;;;;;;;0.10;0.10;;;;;;;21.45;58.14;102699.16;5053046;28;20091;-66
2023/09/03 03:30:11;;;;;;;0.10;0.10;;;;;;;21.39;58.49;102705.63;5052913;28;20036;-66
2023/09/03 03:32:36;;;;;;;0.20;0.20;;;;;;;21.32;58.44;102706.91;5053068;28;20509;-66
2023/09/03 03:35:02;;;;;;;0.10;0.10;;;;;;;21.36;58.63;102714.38;5053353;28;20112;-67
2023/09/03 03:37:27;;;;;;;0.10;0.10;;;;;;;21.28;58.46;102709.31;5052730;28;20037;-67
2023/09/03 03:39:53;;;;;;;0.10;0.10;;;;;;;21.30;58.22;102711.78;5047239;28;20455;-66
2023/09/03 03:42:18;;;;;;;0.10;0.10;;;;;;;21.37;57.61;102710.53;5052637;28;20033;-66
2023/09/03 03:44:43;;;;;;;0.20;0.20;;;;;;;21.25;57.95;102708.97;5060777;28;20085;-66
2023/09/03 03:47:09;;;;;;;0.20;0.20;;;;;;;21.20;57.92;102701.53;5072812;28;20122;-66
2023/09/03 03:49:34;;;;;;;0.20;0.20;;;;;;;21.20;58.12;102692.50;5072670;28;20082;-67
2023/09/03 03:51:59;;;;;;;0.10;0.10;;;;;;;21.27;58.17;102682.19;5072717;28;20397;-66
2023/09/03 03:54:25;;;;;;;0.15;0.15;;;;;;;21.33;57.47;102676.56;5072704;28;20036;-66
2023/09/03 03:56:51;;;;;;;0.10;0.10;;;;;;;21.31;58.15;102686.09;5072681;28;20058;-66
2023/09/03 03:59:16;;;;;;;0.20;0.20;;;;;;;21.11;57.69;102683.06;5072549;28;20025;-67
2023/09/03 04:01:41;;;;;;;0.10;0.10;;;;;;;21.10;57.93;102665.84;5060572;28;20028;-67
2023/09/03 04:04:07;;;;;;;0.10;0.10;;;;;;;21.14;58.29;102668.88;5051806;28;20048;-66
2023/09/03 04:06:32;;;;;;;0.20;0.20;;;;;;;21.18;57.79;102673.63;5051895;28;20087;-65
2023/09/03 04:08:58;;;;;;;0.10;0.10;;;;;;;21.25;58.74;102684.34;5051633;28;20087;-66
2023/09/03 04:11:24;;;;;;;0.10;0.10;;;;;;;21.21;58.29;102699.63;5037902;28;20370;-66
2023/09/03 04:13:49;;;;;;;0.10;0.10;;;;;;;21.08;59.12;102703.53;5052552;28;20428;-66
2023/09/03 04:16:19;;;;;;;0.13;0.13;;;;;;;21.07;59.26;102712.00;5050693;28;20041;-67
2023/09/03 04:18:45;;;;;;;0.10;0.10;;;;;;;21.02;59.99;102715.47;5051601;28;20033;-67
2023/09/03 04:21:11;;;;;;;0.20;0.20;;;;;;;21.03;60.25;102719.03;5052126;28;20036;-66
2023/09/03 04:23:36;;;;;;;0.20;0.20;;;;;;;21.13;59.49;102725.47;5051890;28;20025;-67
2023/09/03 04:26:02;;;;;;;0.20;0.20;;;;;;;21.23;59.28;102727.56;5052510;28;20348;-67
2023/09/03 04:28:27;;;;;;;0.20;0.20;;;;;;;20.73;61.02;102714.69;5051974;28;20029;-66
2023/09/03 04:31:04;;;;;;;0.10;0.10;;;;;;;21.15;59.93;102717.03;5051651;28;20040;-66
2023/09/03 04:33:29;;;;;;;0.10;0.10;;;;;;;21.00;60.54;102717.59;5051128;28;20533;-67
2023/09/03 04:35:57;;;;;;;0.10;0.10;;;;;;;21.23;59.18;102728.38;5051610;28;20087;-66
2023/09/03 04:38:23;;;;;;;0.10;0.10;;;;;;;21.20;59.58;102728.88;5051339;28;20043;-66
2023/09/03 04:40:48;;;;;;;0.10;0.10;;;;;;;21.22;59.38;102728.63;5052232;28;20032;-67
2023/09/03 04:43:14;;;;;;;0.20;0.20;;;;;;;21.10;59.93;102741.56;5051657;28;20075;-66
2023/09/03 04:45:52;;;;;;;0.20;0.20;;;;;;;21.19;59.80;102740.06;5066937;28;20396;-66
2023/09/03 04:48:18;;;;;;;0.10;0.10;;;;;;;21.00;59.76;102740.28;5071482;28;20112;-67
2023/09/03 04:50:43;;;;;;;0.10;0.10;;;;;;;21.07;59.54;102739.31;5071456;28;20446;-66
2023/09/03 04:53:09;;;;;;;0.20;0.20;;;;;;;21.02;60.17;102742.81;5071721;28;20103;-67
2023/09/03 04:55:34;;;;;;;0.20;0.20;;;;;;;21.08;59.71;102747.28;5071101;28;20033;-66
2023/09/03 04:58:01;;;;;;;0.10;0.10;;;;;;;21.13;58.97;102752.81;5071111;28;20064;-66
2023/09/03 05:00:27;;;;;;;0.20;0.20;;;;;;;21.19;58.61;102751.81;5071103;28;20067;-66
2023/09/03 05:02:53;;;;;;;0.30;0.30;;;;;;;21.15;58.75;102739.72;5052774;28;20047;-66
2023/09/03 05:05:18;;;;;;;0.13;0.13;;;;;;;21.10;58.69;102744.28;5064771;28;20025;-67
2023/09/03 05:07:44;;;;;;;0.10;0.10;;;;;;;21.08;59.36;102746.44;5051484;28;20484;-65
2023/09/03 05:10:10;;;;;;;0.10;0.10;;;;;;;21.25;58.66;102756.28;5050887;28;20044;-66
2023/09/03 05:12:35;;;;;;;0.10;0.10;;;;;;;20.98;59.26;102763.47;5051017;28;20037;-67
2023/09/03 05:15:01;;;;;;;0.17;0.17;;;;;;;21.08;58.87;102760.09;5050656;28;20058;-65
2023/09/03 05:17:27;;;;;;;0.10;0.10;;;;;;;21.06;59.48;102767.72;5032857;28;20086;-66
2023/09/03 05:19:52;;;;;;;0.10;0.10;;;;;;;21.07;59.80;102766.66;5051313;28;20500;-67
2023/09/03 05:22:17;;;;;;;0.15;0.15;;;;;;;21.14;59.28;102776.38;5050662;28;20409;-66
2023/09/03 05:24:43;;;;;;;0.10;0.10;;;;;;;21.13;59.69;102788.34;5050629;28;20163;-66
2023/09/03 05:27:09;;;;;;;0.20;0.20;;;;;;;21.32;59.01;102788.94;5047197;28;20037;-66
2023/09/03 05:29:34;;;;;;;0.10;0.10;;;;;;;21.45;59.19;102807.75;5032210;28;20087;-66
2023/09/03 05:32:00;;;;;;;0.10;0.10;;;;;;;21.41;59.19;102806.59;5050743;28;20462;-66
2023/09/03 05:34:25;;;;;;;0.20;0.20;;;;;;;21.37;59.46;102809.00;5050508;28;20048;-67
2023/09/03 05:36:50;;;;;;;0.10;0.10;;;;;;;21.62;58.73;102817.59;5050345;28;20045;-67
2023/09/03 05:39:16;;;;;;;0.10;0.10;;;;;;;21.61;59.11;102815.13;5050213;28;20088;-67
2023/09/03 05:41:41;;;;;;;0.10;0.10;;;;;;;21.78;58.78;102821.38;5050586;28;20036;-67
2023/09/03 05:44:09;;;;;;;0.10;0.10;;;;;;;21.72;58.84;102825.97;5053764;28;20020;-66
2023/09/03 05:46:35;;;;;;;0.17;0.17;;;;;;;21.68;59.38;102830.28;5069876;28;20047;-67
2023/09/03 05:49:00;;;;;;;0.10;0.10;;;;;;;21.76;58.91;102837.22;5070341;28;20492;-67
2023/09/03 05:51:26;;;;;;;0.15;0.15;;;;;;;21.74;59.42;102837.50;5070104;28;20093;-65
2023/09/03 05:53:51;;;;;;;0.20;0.20;;;;;;;21.90;58.83;102851.44;5070035;28;20043;-67
2023/09/03 05:56:17;;;;;;;0.10;0.10;;;;;;;21.92;59.36;102855.56;5051991;28;20095;-68
2023/09/03 05:58:42;;;;;;;0.10;0.10;;;;;;;21.94;59.32;102850.69;5070901;28;20036;-66
2023/09/03 06:01:09;;;;;;;0.10;0.10;;;;;;;22.03;59.57;102845.59;5067256;28;20032;-67
2023/09/03 06:03:35;;;;;;;0.10;0.10;;;;;;;22.20;58.04;102851.84;5031249;28;20583;-66
2023/09/03 06:06:05;;;;;;;0.10;0.10;;;;;;;22.37;58.18;102844.41;5050317;28;20079;-67
2023/09/03 06:08:32;;;;;;;0.10;0.10;;;;;;;22.42;59.02;102845.31;5049853;28;20064;-67
2023/09/03 06:10:58;;;;;;;0.10;0.10;;;;;;;22.41;59.12;102843.66;5050357;28;20029;-67
2023/09/03 06:13:25;;;;;;;0.10;0.10;;;;;;;22.68;58.48;102839.06;5049754;28;20029;-67
2023/09/03 06:15:50;;;;;;;0.10;0.10;;;;;;;22.76;58.40;102837.75;5049532;28;20029;-66
2023/09/03 06:18:16;;;;;;;0.13;0.13;;;;;;;22.81;58.62;102840.56;5049714;28;20529;-66
2023/09/03 06:20:41;;;;;;;0.20;0.20;;;;;;;22.79;58.51;102839.16;5049960;28;20033;-66
2023/09/03 06:23:07;;;;;;;0.13;0.13;;;;;;;22.77;59.13;102846.81;5050328;28;20036;-67
2023/09/03 06:25:32;;;;;;;0.10;0.10;;;;;;;23.05;58.40;102846.56;5049877;28;20033;-67
2023/09/03 06:27:58;;;;;;;0.13;0.13;;;;;;;22.99;59.00;102833.91;5049857;28;20037;-67
2023/09/03 06:30:23;;;;;;;0.10;0.10;;;;;;;23.01;58.67;102850.94;5049888;28;20037;-66
2023/09/03 06:32:48;;;;;;;0.08;0.08;;;;;;;23.11;58.60;102849.13;5049506;28;20385;-67
2023/09/03 06:35:14;;;;;;;0.10;0.10;;;;;;;23.05;59.06;102847.41;5049711;28;20071;-67
2023/09/03 06:37:39;;;;;;;0.10;0.10;;;;;;;23.27;58.37;102853.63;5050155;28;20473;-67
2023/09/03 06:40:07;;;;;;;0.10;0.10;;;;;;;23.24;58.92;102848.69;5049646;28;20116;-67
2023/09/03 06:42:32;;;;;;;0.10;0.10;;;;;;;23.41;58.40;102854.88;5049787;28;20392;-66
2023/09/03 06:44:57;;;;;;;0.10;0.10;;;;;;;23.47;58.15;102856.59;5063242;28;20028;-66
2023/09/03 06:47:23;;;;;;;0.10;0.10;;;;;;;23.62;57.73;102863.28;5069408;28;20037;-67
2023/09/03 06:49:51;;;;;;;0.10;0.10;;;;;;;23.68;57.81;102870.47;5069670;28;20032;-68
2023/09/03 06:52:18;;;;;;;0.10;0.10;;;;;;;23.67;58.69;102869.63;5069630;28;20051;-66
2023/09/03 06:54:43;;;;;;;0.00;0.00;;;;;;;23.66;58.72;102873.50;5069423;28;20033;-67
2023/09/03 06:57:08;;;;;;;0.10;0.10;;;;;;;23.78;58.26;102876.88;5072536;28;20473;-68
2023/09/03 06:59:34;;;;;;;0.10;0.10;;;;;;;23.77;58.14;102877.13;5053431;28;20079;-67
2023/09/03 07:02:00;;;;;;;0.00;0.00;;;;;;;23.91;58.39;102881.91;5053695;28;20017;-66
2023/09/03 07:04:25;;;;;;;0.10;0.10;;;;;;;23.88;57.98;102882.41;5053144;28;20072;-66
2023/09/03 07:06:51;;;;;;;0.05;0.05;;;;;;;24.14;58.15;102895.25;5053185;28;20041;-68
2023/09/03 07:09:17;;;;;;;0.10;0.10;;;;;;;24.11;58.31;102893.06;5053257;28;20477;-66
2023/09/03 07:11:42;;;;;;;0.00;0.00;;;;;;;24.15;58.34;102890.59;5053327;28;20481;-67
2023/09/03 07:14:08;;;;;;;0.00;0.00;;;;;;;24.33;58.14;102885.44;5045464;28;20036;-67
2023/09/03 07:16:34;;;;;;;0.00;0.00;;;;;;;24.33;58.13;102881.91;5052864;28;20559;-66
2023/09/03 07:19:00;;;;;;;0.10;0.10;;;;;;;24.48;58.08;102884.72;5052988;28;20036;-66
2023/09/03 07:21:25;;;;;;;0.10;0.10;;;;;;;24.62;57.23;102883.13;5034570;28;20025;-66
2023/09/03 07:23:51;;;;;;;0.10;0.10;;;;;;;24.48;57.77;102886.63;5056216;28;20056;-67
2023/09/03 07:26:17;;;;;;;0.10;0.10;;;;;;;24.33;58.20;102899.19;5060206;28;20045;-67
2023/09/03 07:28:42;;;;;;;0.10;0.10;;;;;;;24.60;57.09;102890.81;5061877;28;20017;-65
2023/09/03 07:31:07;;;;;;;0.10;0.10;;;;;;;24.15;58.52;102891.44;5062837;28;20033;-66
2023/09/03 07:33:33;;;;;;;0.00;0.00;;;;;;;24.15;58.92;102876.84;5053168;28;20643;-66
2023/09/03 07:35:59;;;;;;;0.00;0.00;;;;;;;24.45;58.63;102887.19;5033643;28;20037;-66
2023/09/03 07:38:27;;;;;;;0.00;0.00;;;;;;;24.52;57.77;102891.31;5059402;28;20464;-67
2023/09/03 07:40:53;;;;;;;0.10;0.10;;;;;;;24.95;57.16;102892.88;5061612;28;20116;-66
2023/09/03 07:43:19;;;;;;;0.00;0.00;;;;;;;24.78;57.79;102887.63;5063051;28;20549;-66
2023/09/03 07:45:45;;;;;;;0.00;0.00;;;;;;;24.79;57.58;102894.75;5062147;28;20386;-65
2023/09/03 07:48:10;;;;;;;0.00;0.00;;;;;;;24.21;59.39;102897.78;5062577;28;20041;-68
2023/09/03 07:50:39;;;;;;;0.00;0.00;;;;;;;24.94;57.41;102881.03;5060806;28;20523;-66
2023/09/03 07:53:04;;;;;;;0.08;0.08;;;;;;;25.22;56.75;102880.53;5058251;28;20059;-67
2023/09/03 07:55:30;;;;;;;0.00;0.00;;;;;;;25.48;56.26;102884.16;5051144;28;20033;-67
2023/09/03 07:57:56;;;;;;;0.00;0.00;;;;;;;25.61;56.03;102893.81;5051666;28;20037;-68
2023/09/03 08:00:21;;;;;;;0.00;0.00;;;;;;;25.48;55.89;102891.59;5051107;28;20029;-67
2023/09/03 08:02:47;;;;;;;0.10;0.10;;;;;;;25.89;54.94;102890.44;5050752;28;20041;-67
2023/09/03 08:05:12;;;;;;;0.00;0.00;;;;;;;25.95;54.27;102892.09;5051234;28;20020;-67
2023/09/03 08:07:38;;;;;;;0.00;0.00;;;;;;;26.03;54.36;102894.28;5033277;28;20036;-67
2023/09/03 08:10:04;;;;;;;0.00;0.00;;;;;;;25.90;54.45;102895.72;5050614;28;20048;-66
2023/09/03 08:12:29;;;;;;;0.03;0.03;;;;;;;26.20;54.39;102894.00;5050703;28;20687;-67
2023/09/03 08:14:54;;;;;;;0.00;0.00;;;;;;;26.21;54.51;102896.47;5051511;28;20040;-67
2023/09/03 08:17:21;;;;;;;0.10;0.10;;;;;;;26.59;53.36;102893.03;5050385;28;20048;-67
2023/09/03 08:19:47;;;;;;;0.00;0.00;;;;;;;26.29;53.97;102900.59;5051431;28;20040;-67
2023/09/03 08:22:12;;;;;;;0.00;0.00;;;;;;;26.29;53.98;102897.84;5050651;28;20037;-67
2023/09/03 08:24:37;;;;;;;0.00;0.00;;;;;;;25.53;55.69;102899.88;5050546;28;20105;-67
2023/09/03 08:27:03;;;;;;;0.00;0.00;;;;;;;25.14;56.10;102905.84;5050578;28;20043;-67
2023/09/03 08:29:28;;;;;;;0.00;0.00;;;;;;;25.38;56.53;102913.56;5049974;28;20048;-66
2023/09/03 08:31:54;;;;;;;0.00;0.00;;;;;;;26.09;54.10;102910.56;5050793;28;20028;-67
2023/09/03 08:34:19;;;;;;;0.00;0.00;;;;;;;26.32;53.62;102909.13;5050522;28;20090;-66
2023/09/03 08:36:44;;;;;;;0.00;0.00;;;;;;;26.21;53.51;102903.91;5050906;28;20489;-66
2023/09/03 08:39:10;;;;;;;0.00;0.00;;;;;;;25.63;54.80;102908.13;5050218;28;20481;-67
2023/09/03 08:41:38;;;;;;;0.00;0.00;;;;;;;25.87;54.86;102914.69;5051437;28;20029;-68
2023/09/03 08:44:07;;;;;;;0.00;0.00;;;;;;;26.02;53.86;102914.69;5047361;28;20025;-66
2023/09/03 08:46:36;;;;;;;0.00;0.00;;;;;;;25.54;55.31;102920.78;5052114;28;20064;-67
2023/09/03 08:49:04;;;;;;;0.00;0.00;;;;;;;25.48;55.18;102916.38;5049202;28;20044;-66
2023/09/03 08:51:31;;;;;;;0.00;0.00;;;;;;;25.36;55.28;102921.28;5057692;28;20489;-67
2023/09/03 08:53:58;;;;;;;0.00;0.00;;;;;;;25.62;54.64;102917.47;5050097;28;20033;-66
2023/09/03 08:56:23;;;;;;;0.00;0.00;;;;;;;26.01;53.95;102913.84;5049900;28;20062;-67
2023/09/03 08:58:49;;;;;;;0.00;0.00;;;;;;;26.28;53.35;102921.81;5060765;28;20519;-66
2023/09/03 09:01:16;;;;;;;0.00;0.00;;;;;;;25.79;53.18;102918.84;5050869;28;20068;-65
2023/09/03 09:03:44;;;;;;;0.00;0.00;;;;;;;26.84;50.82;102911.41;5049096;28;20025;-66
2023/09/03 09:06:11;;;;;;;0.00;0.00;;;;;;;27.40;49.90;102912.72;5048584;28;20049;-66
2023/09/03 09:08:38;;;;;;;0.00;0.00;;;;;;;26.78;52.58;102923.59;5032534;28;20045;-66
2023/09/03 09:11:11;;;;;;;0.00;0.00;;;;;;;27.50;50.54;102922.88;5049985;28;20025;-67
2023/09/03 09:13:41;;;;;;;0.00;0.00;;;;;;;27.15;51.21;102925.84;5049368;28;20049;-67
2023/09/03 09:16:07;;;;;;;0.00;0.00;;;;;;;27.33;50.49;102919.69;5047494;28;20650;-67
2023/09/03 09:18:32;;;;;;;0.00;0.00;;;;;;;27.44;50.08;102919.31;5048272;28;20529;-67
2023/09/03 09:21:00;;;;;;;0.00;0.00;;;;;;;28.01;49.19;102915.78;5049838;28;20037;-66
2023/09/03 09:23:26;;;;;;;0.00;0.00;;;;;;;27.17;50.75;102918.94;5049245;28;20059;-67
2023/09/03 09:25:54;;;;;;;0.00;0.00;;;;;;;27.84;49.90;102918.16;5050555;28;20028;-67
2023/09/03 09:28:21;;;;;;;0.00;0.00;;;;;;;27.49;50.72;102922.06;5049764;28;20143;-67
2023/09/03 09:30:53;;;;;;;0.00;0.00;;;;;;;26.85;51.47;102927.69;5049702;28;20574;-66
2023/09/03 09:33:19;;;;;;;0.00;0.00;;;;;;;27.16;50.69;102917.31;5049892;28;20901;-66
2023/09/03 09:35:44;;;;;;;0.00;0.00;;;;;;;27.15;49.33;102936.91;5052206;28;20124;-66
2023/09/03 09:38:09;;;;;;;0.00;0.00;;;;;;;27.65;47.77;102928.28;5053166;28;20558;-66
2023/09/03 09:40:36;;;;;;;0.00;0.00;;;;;;;26.84;49.06;102941.78;5049959;28;20036;-66
2023/09/03 09:43:06;;;;;;;0.00;0.00;;;;;;;27.66;46.65;102932.69;5031175;28;20033;-66
2023/09/03 09:45:32;;;;;;;0.00;0.00;;;;;;;27.50;45.64;102925.63;5047800;28;20033;-67
2023/09/03 09:48:08;;;;;;;0.00;0.00;;;;;;;28.38;44.21;102931.72;5031322;28;20480;-67
2023/09/03 09:50:34;;;;;;;0.00;0.00;;;;;;;28.13;44.08;102943.03;5049260;28;20032;-66
2023/09/03 09:53:00;;;;;;;0.00;0.00;;;;;;;26.79;44.18;102939.06;5060359;28;20067;-66
2023/09/03 09:55:29;;;;;;;0.00;0.00;;;;;;;28.00;42.54;102941.81;5054547;28;20043;-67
2023/09/03 09:57:55;;;;;;;0.00;0.00;;;;;;;28.14;43.44;102939.19;5054497;28;20127;-66
2023/09/03 10:00:41;;;;;;;0.00;0.00;;;;;;;28.46;42.61;102942.16;5047650;28;20115;-67
2023/09/03 10:03:10;;;;;;;0.00;0.00;;;;;;;28.25;43.08;102940.69;5054290;28;20446;-67
2023/09/03 10:05:36;;;;;;;0.00;0.00;;;;;;;27.67;44.32;102946.22;5055257;28;20120;-65
2023/09/03 10:08:03;;;;;;;0.00;0.00;;;;;;;28.28;42.73;102951.19;5029040;28;20124;-66
2023/09/03 10:10:28;;;;;;;0.00;0.00;;;;;;;28.45;43.00;102943.25;5049187;28;20033;-66
2023/09/03 10:12:54;;;;;;;0.00;0.00;;;;;;;27.66;43.04;102944.56;5047119;28;20033;-66
2023/09/03 10:15:21;;;;;;;0.00;0.00;;;;;;;27.99;42.41;102950.41;5048960;28;20123;-67
2023/09/03 10:17:51;;;;;;;0.00;0.00;;;;;;;27.92;44.59;102952.63;5049092;28;20043;-66
2023/09/03 10:20:19;;;;;;;0.00;0.00;;;;;;;28.82;42.17;102950.84;5049323;28;20025;-66
2023/09/03 10:22:47;;;;;;;0.00;0.00;;;;;;;29.02;41.87;102945.84;5047956;28;20036;-67
2023/09/03 10:25:15;;;;;;;0.00;0.00;;;;;;;29.33;41.79;102949.03;5048008;28;20040;-67
2023/09/03 10:27:48;;;;;;;0.00;0.00;;;;;;;29.18;41.98;102940.94;5048099;28;20025;-66
2023/09/03 10:30:17;;;;;;;0.00;0.00;;;;;;;29.27;41.22;102936.38;5028611;28;20151;-67
2023/09/03 10:32:44;;;;;;;0.00;0.00;;;;;;;29.59;40.94;102941.13;5049089;28;20033;-67
2023/09/03 10:35:10;;;;;;;0.00;0.00;;;;;;;29.40;40.90;102933.66;5041301;28;20353;-67
2023/09/03 10:37:37;;;;;;;0.00;0.00;;;;;;;28.67;40.28;102937.22;5049206;28;20051;-67
2023/09/03 10:40:20;;;;;;;0.00;0.00;;;;;;;27.83;43.35;102938.63;5049023;28;20298;-67
2023/09/03 10:42:50;;;;;;;0.00;0.00;;;;;;;28.26;41.34;102940.44;5048473;28;20026;-66
2023/09/03 10:45:15;;;;;;;0.00;0.00;;;;;;;28.86;41.30;102946.34;5048507;28;20071;-66
2023/09/03 10:48:01;;;;;;;0.00;0.00;;;;;;;29.18;38.87;102947.31;5048623;28;20040;-66
2023/09/03 10:50:50;;;;;;;0.00;0.00;;;;;;;28.86;40.24;102949.94;5048063;28;20075;-65
2023/09/03 10:53:37;;;;;;;0.00;0.00;;;;;;;29.76;39.73;102958.88;5046709;28;20031;-68
2023/09/03 10:56:17;;;;;;;0.00;0.00;;;;;;;29.76;40.40;102949.75;5047289;28;20057;-67
2023/09/03 10:58:54;;;;;;;0.00;0.00;;;;;;;29.95;38.85;102954.13;5048754;28;20140;-67
2023/09/03 11:01:30;;;;;;;0.00;0.00;;;;;;;30.01;38.23;102952.91;5046036;28;20041;-70
2023/09/03 11:03:56;;;;;;;0.00;0.00;;;;;;;28.68;40.86;102936.09;5047336;28;20040;-69
2023/09/03 11:06:23;;;;;;;0.00;0.00;;;;;;;27.89;42.13;102942.16;5048606;28;20032;-69
2023/09/03 11:09:10;;;;;;;0.00;0.00;;;;;;;29.62;39.50;102932.22;5048649;28;20442;-69
2023/09/03 11:11:36;;;;;;;0.00;0.00;;;;;;;29.95;37.39;102934.72;5047254;28;20663;-69
2023/09/03 11:14:02;;;;;;;0.00;0.00;;;;;;;30.42;36.52;102938.28;5048405;28;20025;-68
2023/09/03 11:16:30;;;;;;;0.00;0.00;;;;;;;30.09;36.00;102937.50;5049009;28;20060;-69
2023/09/03 11:18:56;;;;;;;0.00;0.00;;;;;;;30.30;35.19;102936.00;5048117;28;20641;-68
2023/09/03 11:21:25;;;;;;;0.00;0.00;;;;;;;30.71;35.30;102936.81;5049199;28;20079;-69
2023/09/03 11:24:03;;;;;;;0.00;0.00;;;;;;;29.59;37.01;102930.88;5048231;28;20040;-69